La Crescenta, California
Current Conditions -  °F | °C
As of 3:53 PM on Monday 20 Oct 2014 (Local Time) from KBUR Reporting Station
Clear Clear  
Wind Chill: 25°   Ceiling: Unl
Heat Index: 26°   Visibility: 10mi
Dew Point: 14°   Wind: 7mph
Humidity: 52%   Direction: 190°S
Pressure: 29.86"   Gusts: NA
Location:  34.22°N, 118.24°W
Report Text: KBUR 202253Z 19006KT 10SM CLR 25/14 A2986 RMK AO2 SLP101 T02500144
Loading
Personal Weather Stations






























Interactive Weather Map
Tropical Storm Tracking
New forecast layout! Learn more

10-Day Weather Forecast

Advertisements
Track Severe Weather on mobile